Caceres, Spain
Current Conditions -  °F | °C
As of 6:00 PM on Thursday 30 Oct 2014 (Local Time) from LEBZ Reporting Station
Clear Clear  
Wind Chill: 26°   Ceiling: Unl
Heat Index: 26°   Visibility: 6mi
Dew Point:   Wind: 5mph
Humidity: 32%   Direction: 150°SSE
Pressure: 30.06"   Gusts: NA
Location:  39.48°N, 6.37°W
Report Text: LEBZ 301700Z 15004KT CAVOK 26/08 Q1018
Loading
Personal Weather Stations






























Interactive Weather Map
Tropical Storm Tracking
New forecast layout! Learn more

10-Day Weather Forecast

Advertisements
Track Severe Weather on mobile